LZKZ Airport Information

Runway Information
Runway 01 Length 10171 ft width 148 ft
Elevation 739 ft Threshold ft Heading 13
Runway 19 Length 10171 ft Width 148 ft
Elevation 753 ft Threshold ft Heading 193
Airport Frequencies
Type APP Name APP Frequency 119.85 MHZ
Type TWR Name TWR Frequency 120.4 MHZ
Airport Navaids
Type NDB Name Kosice Frequency 425 KHZ
Type VOR-DME Name Kosice Frequency 108200 KHZ
Airport Weather Information & NOTAM
ADDS - METARS form results

(0947 UTC 08 August 2022)
Data provider http://aviationweather.gov/metar/data/
 
METAR text: LZKZ 080930Z 02016KT CAVOK 24/11 Q1020 NOSIG
Conditions at: LZKZ (KOSICE BARCA , SK) observed 0930 UTC 08 August 2022
Temperature: 24.0°C (75°F)
Dewpoint: 11.0°C (52°F) [RH = 44%]
Pressure (altimeter): 30.12 inches Hg (1020.0 mb)
Winds: from the NNE (20 degrees) at 18 MPH (16 knots; 8.2 m/s)
Visibility: 6 or more miles (10+ km)
Ceiling: ceiling and visibility are OK
Clouds: unknown
Weather: no significant weather observed at this time

METAR text: LZKZ 080900Z 02016KT CAVOK 24/11 Q1020 NOSIG
Conditions at: LZKZ (KOSICE BARCA , SK) observed 0900 UTC 08 August 2022
Temperature: 24.0°C (75°F)
Dewpoint: 11.0°C (52°F) [RH = 44%]
Pressure (altimeter): 30.12 inches Hg (1020.0 mb)
Winds: from the NNE (20 degrees) at 18 MPH (16 knots; 8.2 m/s)
Visibility: 6 or more miles (10+ km)
Ceiling: ceiling and visibility are OK
Clouds: unknown
Weather: no significant weather observed at this time

Forecast for: LZKZ (KOSICE BARCA , SK)
Text: TAF LZKZ 080515Z 0806/0906 36014KT CAVOK
Forecast period: 0600 UTC 08 August 2022 to 0600 UTC 09 August 2022
Forecast type: FROM: standard forecast or significant change
Winds: from the N (360 degrees) at 16 MPH (14 knots; 7.2 m/s)
Visibility: 6 or more miles (10+ km)
Ceiling: unknown
Clouds: missing
Weather: NSW  (no significant weather)
Text: TEMPO 0808/0817 01017G27KT
Forecast period: 0800 to 1700 UTC 08 August 2022
Forecast type: TEMPORARY: The following changes expected for less than half the time period
Winds: from the N (10 degrees) at 20 MPH (17 knots; 8.7 m/s)
gusting to 31 MPH (27 knots; 13.9 m/s)
Visibility: missing
Ceiling: unknown
Clouds: missing
Weather: no significant weather forecast for this period